Time;durP1;ratioP1;P1;durP2;ratioP2;P2;SDS_P1;SDS_P2;PMS_P1;PMS_P2;Temp;Humidity;BMP_temperature;BMP_pressure;BME280_temperature;BME280_humidity;BME280_pressure;Samples;Min_cycle;Max_cycle;Signal;HPM_P1;HPM_P2
2022/07/06 00:01:28;;;;;;;;;;;18.00;72.20;;;;;;5066846;28;20397;-55
2022/07/06 00:03:54;;;;;;;;;;;18.00;72.00;;;;;;5055118;28;19912;-53
2022/07/06 00:06:19;;;;;;;;;;;18.00;72.30;;;;;;5073295;28;19920;-55
2022/07/06 00:08:45;;;;;;;;;;;18.00;72.80;;;;;;5073597;28;19908;-56
2022/07/06 00:11:10;;;;;;;;;;;18.00;72.70;;;;;;5073293;28;19974;-54
2022/07/06 00:13:36;;;;;;;;;;;18.00;72.50;;;;;;5063917;28;19982;-55
2022/07/06 00:16:01;;;;;;;;;;;17.90;73.90;;;;;;5073310;28;19909;-55
2022/07/06 00:18:27;;;;;;;;;;;17.90;73.30;;;;;;5055220;28;19909;-56
2022/07/06 00:20:52;;;;;;;;;;;17.90;73.50;;;;;;5072652;28;19922;-54
2022/07/06 00:23:18;;;;;;;;;;;17.80;73.90;;;;;;5073103;28;19908;-55
2022/07/06 00:25:43;;;;;;;;;;;17.90;73.90;;;;;;5073178;28;19955;-56
2022/07/06 00:28:12;;;;;;;;;;;17.80;73.70;;;;;;5073172;28;19916;-56
2022/07/06 00:30:37;;;;;;;;;;;17.80;73.70;;;;;;5071647;28;19909;-56
2022/07/06 00:33:03;;;;;;;;;;;17.80;74.40;;;;;;5070940;28;19908;-56
2022/07/06 00:35:28;;;;;;;;;;;17.80;73.70;;;;;;5072692;28;19948;-54
2022/07/06 00:37:54;;;;;;;;;;;17.80;73.70;;;;;;5073190;28;19908;-56
2022/07/06 00:40:20;;;;;;;;;;;17.70;74.70;;;;;;5073092;28;19923;-55
2022/07/06 00:42:47;;;;;;;;;;;17.70;74.70;;;;;;5072715;28;19920;-57
2022/07/06 00:45:13;;;;;;;;;;;17.70;75.00;;;;;;5072930;28;19912;-55
2022/07/06 00:47:40;;;;;;;;;;;17.70;75.00;;;;;;5072758;28;20313;-56
2022/07/06 00:50:22;;;;;;;;;;;17.60;75.80;;;;;;5072589;28;19966;-52
2022/07/06 00:52:51;;;;;;;;;;;17.50;76.00;;;;;;5068200;28;20289;-56
2022/07/06 00:55:19;;;;;;;;;;;17.50;76.30;;;;;;5071100;28;20400;-55
2022/07/06 00:57:45;;;;;;;;;;;17.40;77.20;;;;;;5072707;28;20064;-56
2022/07/06 01:00:12;;;;;;;;;;;17.40;76.90;;;;;;5072290;28;20447;-56
2022/07/06 01:02:37;;;;;;;;;;;17.40;77.20;;;;;;5053783;28;19909;-56
2022/07/06 01:05:03;;;;;;;;;;;17.40;77.30;;;;;;5072139;28;19909;-54
2022/07/06 01:07:29;;;;;;;;;;;17.40;77.00;;;;;;5071865;28;19909;-57
2022/07/06 01:09:55;;;;;;;;;;;17.30;77.40;;;;;;5071681;28;19908;-56
2022/07/06 01:12:20;;;;;;;;;;;17.40;77.10;;;;;;5072589;28;19908;-56
2022/07/06 01:14:46;;;;;;;;;;;17.30;77.30;;;;;;5071973;28;19919;-55
2022/07/06 01:17:13;;;;;;;;;;;17.30;77.70;;;;;;5071955;28;19912;-56
2022/07/06 01:19:38;;;;;;;;;;;17.30;77.50;;;;;;5071694;28;20296;-56
2022/07/06 01:22:04;;;;;;;;;;;17.40;77.40;;;;;;5072203;28;20004;-56
2022/07/06 01:24:29;;;;;;;;;;;17.40;77.60;;;;;;5071956;28;19912;-52
2022/07/06 01:26:55;;;;;;;;;;;17.30;77.10;;;;;;5071429;28;19908;-55
2022/07/06 01:29:20;;;;;;;;;;;17.30;78.20;;;;;;5071348;28;20377;-54
2022/07/06 01:31:50;;;;;;;;;;;17.30;78.60;;;;;;5072405;28;19970;-56
2022/07/06 01:34:18;;;;;;;;;;;17.20;79.00;;;;;;5070978;28;19909;-57
2022/07/06 01:36:44;;;;;;;;;;;17.20;79.90;;;;;;5066123;28;19916;-56
2022/07/06 01:39:09;;;;;;;;;;;17.20;78.80;;;;;;5071914;28;19916;-56
2022/07/06 01:41:35;;;;;;;;;;;17.20;78.90;;;;;;5067919;28;19908;-56
2022/07/06 01:44:01;;;;;;;;;;;17.20;78.90;;;;;;5071606;28;19909;-56
2022/07/06 01:46:27;;;;;;;;;;;17.20;78.50;;;;;;5071265;28;19909;-54
2022/07/06 01:48:52;;;;;;;;;;;17.20;78.60;;;;;;5071001;28;19913;-56
2022/07/06 01:51:18;;;;;;;;;;;17.30;78.80;;;;;;5071666;28;19916;-56
2022/07/06 01:53:43;;;;;;;;;;;17.20;78.60;;;;;;5069620;28;20077;-57
2022/07/06 01:56:09;;;;;;;;;;;17.20;79.20;;;;;;5071935;28;19908;-56
2022/07/06 01:58:35;;;;;;;;;;;17.20;78.80;;;;;;5071693;28;20377;-56
2022/07/06 02:01:00;;;;;;;;;;;17.20;79.20;;;;;;5071032;28;19920;-56
2022/07/06 02:03:26;;;;;;;;;;;17.10;79.80;;;;;;5071200;28;19915;-57
2022/07/06 02:05:51;;;;;;;;;;;17.10;79.50;;;;;;5071063;28;19915;-54
2022/07/06 02:08:17;;;;;;;;;;;17.10;79.70;;;;;;5071064;28;19913;-54
2022/07/06 02:10:42;;;;;;;;;;;17.10;80.00;;;;;;5064616;28;19924;-55
2022/07/06 02:13:08;;;;;;;;;;;17.10;79.60;;;;;;5064238;28;20044;-56
2022/07/06 02:15:33;;;;;;;;;;;17.10;79.80;;;;;;5071126;28;19999;-56
2022/07/06 02:17:59;;;;;;;;;;;17.10;79.80;;;;;;5070965;28;20375;-56
2022/07/06 02:20:24;;;;;;;;;;;17.10;79.60;;;;;;5071422;28;19974;-56
2022/07/06 02:22:50;;;;;;;;;;;17.10;79.10;;;;;;5070933;28;19919;-56
2022/07/06 02:25:15;;;;;;;;;;;17.10;79.00;;;;;;5070998;28;20007;-57
2022/07/06 02:27:41;;;;;;;;;;;17.00;80.10;;;;;;5071273;28;19908;-57
2022/07/06 02:30:07;;;;;;;;;;;17.00;79.30;;;;;;5070504;28;19909;-56
2022/07/06 02:32:32;;;;;;;;;;;17.00;80.10;;;;;;5070508;28;19940;-57
2022/07/06 02:34:58;;;;;;;;;;;17.00;79.60;;;;;;5071271;28;19953;-54
2022/07/06 02:37:24;;;;;;;;;;;16.90;79.50;;;;;;5070611;28;20270;-56
2022/07/06 02:39:49;;;;;;;;;;;16.90;79.60;;;;;;5070360;28;19965;-54
2022/07/06 02:42:15;;;;;;;;;;;16.90;79.20;;;;;;5070908;28;20046;-55
2022/07/06 02:44:40;;;;;;;;;;;16.90;79.50;;;;;;5052343;28;19909;-56
2022/07/06 02:47:06;;;;;;;;;;;16.90;79.60;;;;;;5070279;28;19927;-56
2022/07/06 02:49:31;;;;;;;;;;;16.80;80.40;;;;;;5070513;28;20304;-54
2022/07/06 02:51:57;;;;;;;;;;;16.80;80.60;;;;;;5071138;28;20297;-55
2022/07/06 02:54:22;;;;;;;;;;;16.70;80.70;;;;;;5070869;28;19908;-56
2022/07/06 02:56:52;;;;;;;;;;;16.70;80.10;;;;;;5064258;28;19924;-56
2022/07/06 02:59:17;;;;;;;;;;;16.70;80.10;;;;;;5070702;28;20293;-56
2022/07/06 03:01:43;;;;;;;;;;;16.70;80.70;;;;;;5070187;28;19908;-57
2022/07/06 03:04:08;;;;;;;;;;;16.70;81.00;;;;;;5070446;28;20304;-55
2022/07/06 03:06:34;;;;;;;;;;;16.60;81.00;;;;;;5070609;28;19919;-56
2022/07/06 03:09:00;;;;;;;;;;;16.60;80.70;;;;;;5068389;28;19917;-56
2022/07/06 03:11:26;;;;;;;;;;;16.60;81.00;;;;;;5066670;28;19912;-56
2022/07/06 03:13:51;;;;;;;;;;;16.50;81.30;;;;;;5070354;28;19908;-57
2022/07/06 03:16:17;;;;;;;;;;;16.50;81.40;;;;;;5070251;28;19912;-56
2022/07/06 03:18:42;;;;;;;;;;;16.50;81.40;;;;;;5070585;28;20347;-56
2022/07/06 03:21:08;;;;;;;;;;;16.50;81.10;;;;;;5064822;28;19924;-55
2022/07/06 03:23:33;;;;;;;;;;;16.50;81.30;;;;;;5070861;28;20360;-55
2022/07/06 03:25:59;;;;;;;;;;;16.40;81.70;;;;;;5070491;28;19954;-54
2022/07/06 03:28:24;;;;;;;;;;;16.40;81.90;;;;;;5070393;28;19950;-56
2022/07/06 03:30:49;;;;;;;;;;;16.40;82.30;;;;;;5070519;28;19916;-56
2022/07/06 03:33:15;;;;;;;;;;;16.40;82.20;;;;;;5065538;28;19908;-54
2022/07/06 03:35:41;;;;;;;;;;;16.40;82.10;;;;;;5063988;28;19913;-56
2022/07/06 03:38:06;;;;;;;;;;;16.30;82.70;;;;;;5068939;28;19913;-52
2022/07/06 03:40:31;;;;;;;;;;;16.40;81.90;;;;;;5067029;28;19917;-55
2022/07/06 03:42:57;;;;;;;;;;;16.30;82.40;;;;;;5069948;28;19916;-56
2022/07/06 03:45:23;;;;;;;;;;;16.30;82.10;;;;;;5069909;28;20502;-52
2022/07/06 03:47:48;;;;;;;;;;;16.30;82.20;;;;;;5069819;28;19927;-56
2022/07/06 03:50:15;;;;;;;;;;;16.30;83.30;;;;;;5073187;28;19909;-56
2022/07/06 03:52:40;;;;;;;;;;;16.30;82.80;;;;;;5073532;28;19919;-55
2022/07/06 03:55:07;;;;;;;;;;;16.30;83.30;;;;;;5073755;28;19909;-51
2022/07/06 03:57:33;;;;;;;;;;;16.20;83.20;;;;;;5073959;28;19974;-56
2022/07/06 03:59:58;;;;;;;;;;;16.20;83.80;;;;;;5072977;28;20373;-56
2022/07/06 04:02:24;;;;;;;;;;;16.20;83.60;;;;;;5073808;28;20327;-56
2022/07/06 04:04:49;;;;;;;;;;;16.20;83.70;;;;;;5073239;28;20377;-56
2022/07/06 04:07:15;;;;;;;;;;;16.10;84.00;;;;;;5073460;28;19908;-55
2022/07/06 04:09:40;;;;;;;;;;;16.10;84.00;;;;;;5073218;28;20011;-56
2022/07/06 04:12:06;;;;;;;;;;;16.10;83.50;;;;;;5073387;28;19999;-56
2022/07/06 04:14:31;;;;;;;;;;;16.10;84.80;;;;;;5073020;28;20399;-57
2022/07/06 04:16:57;;;;;;;;;;;16.10;84.20;;;;;;5073470;28;20407;-56
2022/07/06 04:19:22;;;;;;;;;;;16.10;85.20;;;;;;5066768;28;19921;-56
2022/07/06 04:21:48;;;;;;;;;;;16.10;84.20;;;;;;5073263;28;19995;-57
2022/07/06 04:24:13;;;;;;;;;;;16.10;85.00;;;;;;5072940;28;19909;-57
2022/07/06 04:26:39;;;;;;;;;;;16.10;84.50;;;;;;5073039;28;19916;-57
2022/07/06 04:29:04;;;;;;;;;;;16.10;84.90;;;;;;5072862;28;19908;-56
2022/07/06 04:31:30;;;;;;;;;;;16.10;84.80;;;;;;5073232;28;19916;-54
2022/07/06 04:33:55;;;;;;;;;;;16.10;84.20;;;;;;5072879;28;19908;-55
2022/07/06 04:36:21;;;;;;;;;;;16.10;84.50;;;;;;5073024;28;20003;-57
2022/07/06 04:38:47;;;;;;;;;;;16.10;85.40;;;;;;5073316;28;19908;-56
2022/07/06 04:41:12;;;;;;;;;;;16.10;85.80;;;;;;5072924;28;19920;-52
2022/07/06 04:43:38;;;;;;;;;;;16.10;84.90;;;;;;5072475;28;20288;-56
2022/07/06 04:46:05;;;;;;;;;;;16.10;85.60;;;;;;5072752;28;19995;-56
2022/07/06 04:48:32;;;;;;;;;;;16.10;84.90;;;;;;5069236;28;19935;-55
2022/07/06 04:50:58;;;;;;;;;;;16.10;85.30;;;;;;5072794;28;19916;-57
2022/07/06 04:53:23;;;;;;;;;;;16.10;85.30;;;;;;5072289;28;19952;-56
2022/07/06 04:55:49;;;;;;;;;;;16.20;85.40;;;;;;5072370;28;19997;-56
2022/07/06 04:58:14;;;;;;;;;;;16.20;85.90;;;;;;5072518;28;20281;-55
2022/07/06 05:00:40;;;;;;;;;;;16.20;85.90;;;;;;5070651;28;19920;-54
2022/07/06 05:03:05;;;;;;;;;;;16.30;85.80;;;;;;5066055;28;19916;-56
2022/07/06 05:05:31;;;;;;;;;;;16.30;86.10;;;;;;5072821;28;20007;-55
2022/07/06 05:07:56;;;;;;;;;;;16.30;86.00;;;;;;5072717;28;20379;-57
2022/07/06 05:10:22;;;;;;;;;;;16.30;85.80;;;;;;5072365;28;19915;-58
2022/07/06 05:12:47;;;;;;;;;;;16.40;85.70;;;;;;5071453;28;19960;-54
2022/07/06 05:15:13;;;;;;;;;;;16.40;86.10;;;;;;5072085;28;20003;-56
2022/07/06 05:17:38;;;;;;;;;;;16.40;87.10;;;;;;5072047;28;19999;-55
2022/07/06 05:20:05;;;;;;;;;;;16.40;85.80;;;;;;5065527;28;19920;-56
2022/07/06 05:22:30;;;;;;;;;;;16.40;86.10;;;;;;5072267;28;19965;-54
2022/07/06 05:24:56;;;;;;;;;;;16.50;86.40;;;;;;5071857;28;19908;-55
2022/07/06 05:27:22;;;;;;;;;;;16.50;86.60;;;;;;5071241;28;20577;-56
2022/07/06 05:29:47;;;;;;;;;;;16.50;86.60;;;;;;5071604;28;19915;-56
2022/07/06 05:32:12;;;;;;;;;;;16.60;86.10;;;;;;5072151;28;19951;-56
2022/07/06 05:34:38;;;;;;;;;;;16.70;86.70;;;;;;5071391;28;20349;-52
2022/07/06 05:37:03;;;;;;;;;;;16.70;86.80;;;;;;5072014;28;20041;-57
2022/07/06 05:39:29;;;;;;;;;;;16.70;86.70;;;;;;5071514;28;19912;-54
2022/07/06 05:41:54;;;;;;;;;;;16.80;86.10;;;;;;5064790;28;19916;-53
2022/07/06 05:44:20;;;;;;;;;;;16.80;86.10;;;;;;5071795;28;19916;-55
2022/07/06 05:46:45;;;;;;;;;;;16.80;86.40;;;;;;5071430;28;19916;-55
2022/07/06 05:51:55;;;;;;;;;;;16.80;86.70;;;;;;5071571;28;19946;-56
2022/07/06 05:54:20;;;;;;;;;;;16.80;86.90;;;;;;5071450;28;19956;-54
2022/07/06 05:56:46;;;;;;;;;;;16.90;86.90;;;;;;5046429;28;19913;-58
2022/07/06 05:59:11;;;;;;;;;;;16.90;86.90;;;;;;5071686;28;19912;-57
2022/07/06 06:01:37;;;;;;;;;;;17.00;86.80;;;;;;5070761;28;19923;-56
2022/07/06 06:04:02;;;;;;;;;;;17.00;86.90;;;;;;5071036;28;20065;-57
2022/07/06 06:06:31;;;;;;;;;;;17.00;87.10;;;;;;5070863;28;19908;-56
2022/07/06 06:08:56;;;;;;;;;;;17.10;87.10;;;;;;5070732;28;19956;-54
2022/07/06 06:11:22;;;;;;;;;;;17.10;86.90;;;;;;5069889;28;20013;-56
2022/07/06 06:13:47;;;;;;;;;;;17.20;87.00;;;;;;5073881;28;19919;-53
2022/07/06 06:16:13;;;;;;;;;;;17.30;86.90;;;;;;5073597;28;19955;-51
2022/07/06 06:18:38;;;;;;;;;;;17.30;86.40;;;;;;5070099;28;19919;-63
2022/07/06 06:21:04;;;;;;;;;;;17.30;86.40;;;;;;5070439;28;20407;-59
2022/07/06 06:23:29;;;;;;;;;;;17.30;86.20;;;;;;5069353;28;19916;-60
2022/07/06 06:25:55;;;;;;;;;;;17.30;85.90;;;;;;5070514;28;19916;-60
2022/07/06 06:28:20;;;;;;;;;;;17.40;86.40;;;;;;5052538;28;20335;-59
2022/07/06 06:30:46;;;;;;;;;;;17.40;85.90;;;;;;5070768;28;19909;-60
2022/07/06 06:33:18;;;;;;;;;;;17.40;85.90;;;;;;5070194;28;20373;-59
2022/07/06 06:35:44;;;;;;;;;;;17.50;85.70;;;;;;5070351;28;19909;-58
2022/07/06 06:38:09;;;;;;;;;;;17.50;86.00;;;;;;5069914;28;19908;-59
2022/07/06 06:40:35;;;;;;;;;;;17.60;86.00;;;;;;5070509;28;19939;-59
2022/07/06 06:43:00;;;;;;;;;;;17.60;85.60;;;;;;5075514;28;19989;-59
2022/07/06 06:45:26;;;;;;;;;;;17.70;85.60;;;;;;5067624;28;19955;-58
2022/07/06 06:47:51;;;;;;;;;;;17.80;85.80;;;;;;5056861;28;19974;-58
2022/07/06 06:50:17;;;;;;;;;;;17.80;85.40;;;;;;5067851;28;19916;-58
2022/07/06 06:52:42;;;;;;;;;;;17.80;85.30;;;;;;5067553;28;20351;-58
2022/07/06 06:55:08;;;;;;;;;;;17.80;85.00;;;;;;5067949;28;20445;-58
2022/07/06 06:57:34;;;;;;;;;;;17.90;85.10;;;;;;5064459;28;19919;-57
2022/07/06 07:00:00;;;;;;;;;;;18.00;85.00;;;;;;5066895;28;20011;-57
2022/07/06 07:02:25;;;;;;;;;;;18.00;85.10;;;;;;5068042;28;19974;-56
2022/07/06 07:04:51;;;;;;;;;;;18.00;85.10;;;;;;5068469;28;19912;-58
2022/07/06 07:07:17;;;;;;;;;;;18.00;84.70;;;;;;5067810;28;20011;-56
2022/07/06 07:09:42;;;;;;;;;;;18.10;84.70;;;;;;5067394;28;19985;-59
2022/07/06 07:12:08;;;;;;;;;;;18.10;84.60;;;;;;5068011;28;20341;-57
2022/07/06 07:14:33;;;;;;;;;;;18.10;84.00;;;;;;5067917;28;19913;-58
2022/07/06 07:16:59;;;;;;;;;;;18.20;84.00;;;;;;5068706;28;19923;-59
2022/07/06 07:19:24;;;;;;;;;;;18.20;83.80;;;;;;5041689;28;19939;-58
2022/07/06 07:21:50;;;;;;;;;;;18.20;83.60;;;;;;5067103;28;20403;-58
2022/07/06 07:24:15;;;;;;;;;;;18.30;83.70;;;;;;5069486;28;19919;-58
2022/07/06 07:26:41;;;;;;;;;;;18.30;83.50;;;;;;5071931;28;19970;-59
2022/07/06 07:29:06;;;;;;;;;;;18.30;83.60;;;;;;5071661;28;19913;-59
2022/07/06 07:31:32;;;;;;;;;;;18.40;83.70;;;;;;5071043;28;19963;-59
2022/07/06 07:33:58;;;;;;;;;;;18.40;83.80;;;;;;5077160;28;20333;-60
2022/07/06 07:36:24;;;;;;;;;;;18.50;83.20;;;;;;5079916;28;19923;-58
2022/07/06 07:38:50;;;;;;;;;;;18.50;82.80;;;;;;5071067;28;19928;-58
2022/07/06 07:41:16;;;;;;;;;;;18.60;82.90;;;;;;5070491;28;19967;-59
2022/07/06 07:43:42;;;;;;;;;;;18.60;82.80;;;;;;5070865;28;20353;-59
2022/07/06 07:46:07;;;;;;;;;;;18.70;82.60;;;;;;5073167;28;19916;-58
2022/07/06 07:48:33;;;;;;;;;;;18.60;82.50;;;;;;5070263;28;19920;-58
2022/07/06 07:50:58;;;;;;;;;;;18.70;81.40;;;;;;5070694;28;19913;-58
2022/07/06 07:53:24;;;;;;;;;;;18.70;81.40;;;;;;5071674;28;19924;-57
2022/07/06 07:55:49;;;;;;;;;;;18.70;81.60;;;;;;5070426;28;19916;-59
2022/07/06 07:58:18;;;;;;;;;;;18.80;81.80;;;;;;5068288;28;20007;-58
2022/07/06 08:00:44;;;;;;;;;;;18.80;81.60;;;;;;5070570;28;19924;-58
2022/07/06 08:03:10;;;;;;;;;;;18.80;81.00;;;;;;5070721;28;19919;-59
2022/07/06 08:05:35;;;;;;;;;;;18.80;80.50;;;;;;5070148;28;19920;-59
2022/07/06 08:08:01;;;;;;;;;;;18.80;80.40;;;;;;5071130;28;19978;-57
2022/07/06 08:10:26;;;;;;;;;;;18.90;80.20;;;;;;5073445;28;20304;-58
2022/07/06 08:12:52;;;;;;;;;;;19.00;80.30;;;;;;5070478;28;19912;-59
2022/07/06 08:15:18;;;;;;;;;;;19.00;80.50;;;;;;5071093;28;19924;-56
2022/07/06 08:17:43;;;;;;;;;;;19.10;79.90;;;;;;5070673;28;19912;-58
2022/07/06 08:20:09;;;;;;;;;;;19.10;80.10;;;;;;5070102;28;19926;-61
2022/07/06 08:22:35;;;;;;;;;;;19.10;79.60;;;;;;5070479;28;19928;-59
2022/07/06 08:25:01;;;;;;;;;;;19.10;79.80;;;;;;5070571;28;19962;-60
2022/07/06 08:27:27;;;;;;;;;;;19.20;80.60;;;;;;5068526;28;19912;-59
2022/07/06 08:29:52;;;;;;;;;;;19.20;79.40;;;;;;5070320;28;19913;-60
2022/07/06 08:32:19;;;;;;;;;;;19.20;79.50;;;;;;5070543;28;19970;-60
2022/07/06 08:34:45;;;;;;;;;;;19.20;79.30;;;;;;5069885;28;20003;-60
2022/07/06 08:37:11;;;;;;;;;;;19.20;79.10;;;;;;5073816;28;20012;-58
2022/07/06 08:39:36;;;;;;;;;;;19.20;79.20;;;;;;5070241;28;20011;-59
2022/07/06 08:42:02;;;;;;;;;;;19.30;78.80;;;;;;5046801;28;19932;-57
2022/07/06 08:44:27;;;;;;;;;;;19.30;78.90;;;;;;5070544;28;19912;-60
2022/07/06 08:46:54;;;;;;;;;;;19.20;79.50;;;;;;5071887;28;20007;-59
2022/07/06 08:49:20;;;;;;;;;;;19.30;78.80;;;;;;5069476;28;19962;-59
2022/07/06 08:51:45;;;;;;;;;;;19.30;78.90;;;;;;5073512;28;19917;-60
2022/07/06 08:54:11;;;;;;;;;;;19.30;77.30;;;;;;5070328;28;20407;-60
2022/07/06 08:56:37;;;;;;;;;;;19.30;78.00;;;;;;5075588;28;19920;-60
2022/07/06 08:59:03;;;;;;;;;;;19.30;77.90;;;;;;5076478;28;20375;-60
2022/07/06 09:01:29;;;;;;;;;;;19.40;77.70;;;;;;5079284;28;19974;-60
2022/07/06 09:03:54;;;;;;;;;;;19.40;77.90;;;;;;5075848;28;19932;-60
2022/07/06 09:06:24;;;;;;;;;;;19.50;78.20;;;;;;5079275;28;19996;-59
2022/07/06 09:08:52;;;;;;;;;;;19.60;78.10;;;;;;5077674;28;19916;-60
2022/07/06 09:11:17;;;;;;;;;;;19.60;78.20;;;;;;5078325;28;19916;-60
2022/07/06 09:13:43;;;;;;;;;;;19.70;77.80;;;;;;5076879;28;19920;-60
2022/07/06 09:16:13;;;;;;;;;;;19.70;77.60;;;;;;5078572;28;20527;-58
2022/07/06 09:18:39;;;;;;;;;;;19.80;76.60;;;;;;5071916;28;19913;-59
2022/07/06 09:21:05;;;;;;;;;;;19.80;75.60;;;;;;5069685;28;19998;-60
2022/07/06 09:23:31;;;;;;;;;;;19.80;75.60;;;;;;5069975;28;20011;-60
2022/07/06 09:25:57;;;;;;;;;;;19.90;75.80;;;;;;5070091;28;19952;-59
2022/07/06 09:28:23;;;;;;;;;;;19.90;75.30;;;;;;5069733;28;19971;-60
2022/07/06 09:30:48;;;;;;;;;;;20.00;75.90;;;;;;5069595;28;20315;-59
2022/07/06 09:33:17;;;;;;;;;;;20.00;75.10;;;;;;5071874;28;20345;-59
2022/07/06 09:35:45;;;;;;;;;;;20.00;74.80;;;;;;5073456;28;19912;-60
2022/07/06 09:38:14;;;;;;;;;;;20.00;75.20;;;;;;5073585;28;20305;-60
2022/07/06 09:40:40;;;;;;;;;;;20.00;74.90;;;;;;5072500;28;19920;-59
2022/07/06 09:43:08;;;;;;;;;;;20.10;74.70;;;;;;5069549;28;20289;-59
2022/07/06 09:45:34;;;;;;;;;;;20.00;74.40;;;;;;5069314;28;20007;-59
2022/07/06 09:48:11;;;;;;;;;;;20.00;74.20;;;;;;5066480;28;19920;-58
2022/07/06 09:50:40;;;;;;;;;;;20.10;73.90;;;;;;5067816;28;19912;-57
2022/07/06 09:53:06;;;;;;;;;;;20.10;73.60;;;;;;5070815;28;20373;-57
2022/07/06 09:55:32;;;;;;;;;;;20.10;73.70;;;;;;5076869;28;19999;-60
2022/07/06 09:57:57;;;;;;;;;;;20.20;72.80;;;;;;5075032;28;20354;-58
2022/07/06 10:00:23;;;;;;;;;;;20.20;73.50;;;;;;5069183;28;19921;-59
2022/07/06 10:02:49;;;;;;;;;;;20.30;72.90;;;;;;5068137;28;19976;-58
2022/07/06 10:05:16;;;;;;;;;;;20.40;73.20;;;;;;5068855;28;20486;-61
2022/07/06 10:07:41;;;;;;;;;;;20.50;73.70;;;;;;5072748;28;20429;-59
2022/07/06 10:10:08;;;;;;;;;;;20.50;74.00;;;;;;5069680;28;19920;-60
2022/07/06 10:12:34;;;;;;;;;;;20.60;73.80;;;;;;5069093;28;19916;-60
2022/07/06 10:14:59;;;;;;;;;;;20.70;72.30;;;;;;5055371;28;19966;-60
2022/07/06 10:17:25;;;;;;;;;;;20.70;72.30;;;;;;5078150;28;20381;-60
2022/07/06 10:19:51;;;;;;;;;;;20.70;72.00;;;;;;5067704;28;20001;-61
2022/07/06 10:22:17;;;;;;;;;;;20.80;72.70;;;;;;5068395;28;20380;-60
2022/07/06 10:24:43;;;;;;;;;;;20.80;72.60;;;;;;5068735;28;19970;-60
2022/07/06 10:27:10;;;;;;;;;;;20.80;72.20;;;;;;5066081;28;19917;-61
2022/07/06 10:29:36;;;;;;;;;;;20.80;72.50;;;;;;5067848;28;20078;-60
2022/07/06 10:32:02;;;;;;;;;;;20.90;72.10;;;;;;5067999;28;20076;-61
2022/07/06 10:34:27;;;;;;;;;;;21.00;72.10;;;;;;5069169;28;20373;-61
2022/07/06 10:36:54;;;;;;;;;;;21.00;70.90;;;;;;5068668;28;19912;-60
2022/07/06 10:42:34;;;;;;;;;;;21.00;70.50;;;;;;5068305;28;19978;-60
2022/07/06 10:45:00;;;;;;;;;;;21.10;71.20;;;;;;5068137;28;20402;-59
2022/07/06 10:47:28;;;;;;;;;;;21.10;71.00;;;;;;5068305;28;19925;-58
2022/07/06 10:49:58;;;;;;;;;;;21.20;69.10;;;;;;5068288;28;19912;-58
2022/07/06 10:52:44;;;;;;;;;;;21.20;70.40;;;;;;5068770;28;19997;-59
2022/07/06 10:55:27;;;;;;;;;;;21.30;70.50;;;;;;5065866;28;19999;-59
2022/07/06 10:57:52;;;;;;;;;;;21.40;69.00;;;;;;5069448;28;19912;-59
2022/07/06 11:00:18;;;;;;;;;;;21.40;69.00;;;;;;5071887;28;19931;-60
2022/07/06 11:02:43;;;;;;;;;;;21.40;68.80;;;;;;5044334;28;20444;-60
2022/07/06 11:05:32;;;;;;;;;;;21.50;69.90;;;;;;5070531;28;19919;-58
2022/07/06 11:08:00;;;;;;;;;;;21.60;69.40;;;;;;5071650;28;19924;-60
2022/07/06 11:10:26;;;;;;;;;;;21.60;69.00;;;;;;5068691;28;19916;-61
2022/07/06 11:12:58;;;;;;;;;;;21.70;69.30;;;;;;5073714;28;19926;-58
2022/07/06 11:15:46;;;;;;;;;;;21.70;68.90;;;;;;5075388;28;19939;-60
2022/07/06 11:18:14;;;;;;;;;;;21.70;69.30;;;;;;5079066;28;20017;-60
2022/07/06 11:20:40;;;;;;;;;;;21.80;69.30;;;;;;5071777;28;19921;-60
2022/07/06 11:23:05;;;;;;;;;;;21.80;69.10;;;;;;5071948;28;19940;-60
2022/07/06 11:25:31;;;;;;;;;;;21.70;70.00;;;;;;5072026;28;20288;-58
2022/07/06 11:27:57;;;;;;;;;;;21.80;70.00;;;;;;5071615;28;19912;-59
2022/07/06 11:30:23;;;;;;;;;;;21.80;68.80;;;;;;5071989;28;20361;-58
2022/07/06 11:32:48;;;;;;;;;;;21.80;68.80;;;;;;5071526;28;19921;-57
2022/07/06 11:35:20;;;;;;;;;;;21.80;69.50;;;;;;5072649;28;19930;-57
2022/07/06 11:37:46;;;;;;;;;;;21.80;68.60;;;;;;5046664;28;19916;-59
2022/07/06 11:40:12;;;;;;;;;;;21.90;69.40;;;;;;5068775;28;19921;-59
2022/07/06 11:42:37;;;;;;;;;;;22.00;69.80;;;;;;5071711;28;19920;-57
2022/07/06 11:45:03;;;;;;;;;;;22.10;69.70;;;;;;5072030;28;20343;-58
2022/07/06 11:47:32;;;;;;;;;;;22.20;69.20;;;;;;5071377;28;20556;-58
2022/07/06 11:49:57;;;;;;;;;;;22.20;69.30;;;;;;5070946;28;19917;-59
2022/07/06 11:52:23;;;;;;;;;;;22.30;68.50;;;;;;5071550;28;19923;-57
2022/07/06 11:54:49;;;;;;;;;;;22.40;67.90;;;;;;5070876;28;19948;-58
2022/07/06 11:57:14;;;;;;;;;;;22.40;67.80;;;;;;5073211;28;19951;-58
2022/07/06 11:59:41;;;;;;;;;;;22.40;67.30;;;;;;5072415;28;19986;-58
2022/07/06 12:02:08;;;;;;;;;;;22.50;67.20;;;;;;5071771;28;20285;-58
2022/07/06 12:04:34;;;;;;;;;;;22.50;67.40;;;;;;5071038;28;19999;-57
2022/07/06 12:07:04;;;;;;;;;;;22.40;66.40;;;;;;5069847;28;20289;-56
2022/07/06 12:09:31;;;;;;;;;;;22.40;65.80;;;;;;5070082;28;19913;-57
2022/07/06 12:11:56;;;;;;;;;;;22.30;65.80;;;;;;5070392;28;19916;-58
2022/07/06 12:14:22;;;;;;;;;;;22.30;65.20;;;;;;5070918;28;19919;-58
2022/07/06 12:16:50;;;;;;;;;;;22.30;66.70;;;;;;5071153;28;19912;-59
2022/07/06 12:19:16;;;;;;;;;;;22.40;66.50;;;;;;5046637;28;19913;-58
2022/07/06 12:21:46;;;;;;;;;;;22.50;66.50;;;;;;5070602;28;20321;-58
2022/07/06 12:24:18;;;;;;;;;;;22.50;66.70;;;;;;5071219;28;20459;-58
2022/07/06 12:26:43;;;;;;;;;;;22.50;67.10;;;;;;5070502;28;19947;-57
2022/07/06 12:29:12;;;;;;;;;;;22.60;67.10;;;;;;5071004;28;20396;-58
2022/07/06 12:31:48;;;;;;;;;;;22.70;66.00;;;;;;5070793;28;19969;-58
2022/07/06 12:34:15;;;;;;;;;;;22.70;65.80;;;;;;5069580;28;19916;-59
2022/07/06 12:36:45;;;;;;;;;;;22.70;66.30;;;;;;5049409;28;20327;-59
2022/07/06 12:39:12;;;;;;;;;;;22.80;65.60;;;;;;5070340;28;19940;-58
2022/07/06 12:41:43;;;;;;;;;;;22.80;65.90;;;;;;5070091;28;19921;-60
2022/07/06 12:44:09;;;;;;;;;;;22.80;66.30;;;;;;5069330;28;20368;-59
2022/07/06 12:46:41;;;;;;;;;;;22.90;66.60;;;;;;5075267;28;20295;-60
2022/07/06 12:49:17;;;;;;;;;;;23.00;65.20;;;;;;5070409;28;19921;-59
2022/07/06 12:51:59;;;;;;;;;;;23.10;64.90;;;;;;5074806;28;19954;-60
2022/07/06 12:54:26;;;;;;;;;;;23.10;65.80;;;;;;5077909;28;20364;-60
2022/07/06 12:56:55;;;;;;;;;;;23.20;64.30;;;;;;5075596;28;19942;-60
2022/07/06 12:59:24;;;;;;;;;;;23.20;64.20;;;;;;5077222;28;20743;-59
2022/07/06 13:01:55;;;;;;;;;;;23.20;64.40;;;;;;5070385;28;20013;-60
2022/07/06 13:04:21;;;;;;;;;;;23.30;64.70;;;;;;5070065;28;20357;-59
2022/07/06 13:06:47;;;;;;;;;;;23.40;64.60;;;;;;5067183;28;20014;-61
2022/07/06 13:09:14;;;;;;;;;;;23.40;64.70;;;;;;5069957;28;20319;-60
2022/07/06 13:11:40;;;;;;;;;;;23.40;63.90;;;;;;5072742;28;19908;-60
2022/07/06 13:14:05;;;;;;;;;;;23.40;64.40;;;;;;5074923;28;19923;-60
2022/07/06 13:16:34;;;;;;;;;;;23.40;64.30;;;;;;5069350;28;19909;-60
2022/07/06 13:19:00;;;;;;;;;;;23.50;63.50;;;;;;5070280;28;19977;-62
2022/07/06 13:21:25;;;;;;;;;;;23.50;63.60;;;;;;5069834;28;19917;-61
2022/07/06 13:23:51;;;;;;;;;;;23.60;63.60;;;;;;5069285;28;19967;-61
2022/07/06 13:26:16;;;;;;;;;;;23.70;63.90;;;;;;5069909;28;19908;-61
2022/07/06 13:28:42;;;;;;;;;;;23.80;63.80;;;;;;5069481;28;20487;-61
2022/07/06 13:31:07;;;;;;;;;;;23.80;64.10;;;;;;5069815;28;19960;-62
2022/07/06 13:33:33;;;;;;;;;;;23.90;63.00;;;;;;5069693;28;19915;-61
2022/07/06 13:35:58;;;;;;;;;;;24.00;63.30;;;;;;5069835;28;19912;-61
2022/07/06 13:38:24;;;;;;;;;;;24.10;63.00;;;;;;5069096;28;20391;-60
2022/07/06 13:40:49;;;;;;;;;;;24.10;61.90;;;;;;5068933;28;19932;-60
2022/07/06 13:43:15;;;;;;;;;;;24.10;62.10;;;;;;5069560;28;19920;-60
2022/07/06 13:45:40;;;;;;;;;;;24.10;62.10;;;;;;5069598;28;19919;-60
2022/07/06 13:48:06;;;;;;;;;;;24.10;61.70;;;;;;5069142;28;20385;-59
2022/07/06 13:50:32;;;;;;;;;;;24.10;61.40;;;;;;5069110;28;19967;-60
2022/07/06 13:53:00;;;;;;;;;;;24.20;60.70;;;;;;5069652;28;19935;-59
2022/07/06 13:55:26;;;;;;;;;;;24.20;61.40;;;;;;5069423;28;19936;-59
2022/07/06 13:57:52;;;;;;;;;;;24.20;62.10;;;;;;5045218;28;20313;-59
2022/07/06 14:00:18;;;;;;;;;;;24.30;62.20;;;;;;5069445;28;20392;-59
2022/07/06 14:02:46;;;;;;;;;;;24.30;60.40;;;;;;5068497;28;20497;-59
2022/07/06 14:05:12;;;;;;;;;;;24.30;59.60;;;;;;5068087;28;19952;-59
2022/07/06 14:07:37;;;;;;;;;;;24.30;60.70;;;;;;5068740;28;19967;-58
2022/07/06 14:10:03;;;;;;;;;;;24.30;60.00;;;;;;5062976;28;20478;-59
2022/07/06 14:12:28;;;;;;;;;;;24.30;60.00;;;;;;5069203;28;19912;-58
2022/07/06 14:14:54;;;;;;;;;;;24.20;59.40;;;;;;5065518;28;19920;-60
2022/07/06 14:17:20;;;;;;;;;;;24.30;60.40;;;;;;5069005;28;20410;-60